Time;durP1;ratioP1;P1;durP2;ratioP2;P2;SDS_P1;SDS_P2;PMS_P1;PMS_P2;Temp;Humidity;BMP_temperature;BMP_pressure;BME280_temperature;BME280_humidity;BME280_pressure;Samples;Min_cycle;Max_cycle;Signal;HPM_P1;HPM_P2
2022/04/30 00:02:07;;;;;;;7.50;5.82;;;10.40;99.90;;;;;;5075192;28;20292;-46
2022/04/30 00:04:40;;;;;;;8.50;6.72;;;10.40;99.90;;;;;;5073899;28;20168;-45
2022/04/30 00:07:06;;;;;;;10.93;6.80;;;10.40;99.90;;;;;;5075216;28;20169;-50
2022/04/30 00:09:32;;;;;;;9.32;6.10;;;10.40;99.90;;;;;;5075083;28;20178;-45
2022/04/30 00:11:59;;;;;;;12.73;6.10;;;10.40;99.90;;;;;;5075202;28;20170;-47
2022/04/30 00:14:26;;;;;;;13.43;6.32;;;10.20;99.90;;;;;;5074883;28;20211;-44
2022/04/30 00:16:52;;;;;;;11.30;7.60;;;10.20;99.90;;;;;;5074757;28;20170;-48
2022/04/30 00:19:20;;;;;;;11.75;6.32;;;10.20;99.90;;;;;;5074805;28;20568;-46
2022/04/30 00:21:46;;;;;;;6.85;6.15;;;10.20;99.90;;;;;;5074766;28;20154;-47
2022/04/30 00:24:12;;;;;;;7.47;6.60;;;10.20;99.90;;;;;;5074859;28;20650;-47
2022/04/30 00:26:37;;;;;;;8.63;6.10;;;10.20;99.90;;;;;;5075043;28;20173;-47
2022/04/30 00:29:03;;;;;;;8.63;6.32;;;10.10;99.90;;;;;;5074995;28;20170;-46
2022/04/30 00:31:29;;;;;;;12.30;6.80;;;10.00;99.90;;;;;;5075155;28;20178;-44
2022/04/30 00:33:55;;;;;;;7.38;6.10;;;10.00;99.90;;;;;;5074521;28;20158;-44
2022/04/30 00:36:22;;;;;;;7.25;5.70;;;10.00;99.90;;;;;;5074587;28;20179;-44
2022/04/30 00:38:47;;;;;;;7.63;5.93;;;10.00;99.90;;;;;;5074731;28;20626;-45
2022/04/30 00:41:14;;;;;;;10.75;7.00;;;10.00;99.90;;;;;;5074730;28;20235;-44
2022/04/30 00:43:48;;;;;;;11.70;6.70;;;10.00;99.90;;;;;;5074433;28;20173;-44
2022/04/30 00:46:15;;;;;;;10.52;6.63;;;9.90;99.90;;;;;;5074608;28;20190;-44
2022/04/30 00:48:41;;;;;;;12.45;6.65;;;9.80;99.90;;;;;;5073602;28;20166;-44
2022/04/30 00:51:12;;;;;;;10.18;6.32;;;9.80;99.90;;;;;;5074286;28;20166;-44
2022/04/30 00:53:39;;;;;;;9.30;6.45;;;9.80;99.90;;;;;;5074310;28;20170;-44
2022/04/30 00:56:09;;;;;;;10.80;6.35;;;9.70;99.90;;;;;;5074070;28;20162;-42
2022/04/30 00:58:37;;;;;;;12.48;6.75;;;9.70;99.90;;;;;;5074050;28;20294;-45
2022/04/30 01:01:04;;;;;;;11.68;5.78;;;9.60;99.90;;;;;;5073008;28;20530;-43
2022/04/30 01:03:29;;;;;;;12.70;7.30;;;9.60;99.90;;;;;;5074331;28;20213;-43
2022/04/30 01:05:58;;;;;;;9.25;6.35;;;9.70;99.90;;;;;;5074048;28;20756;-43
2022/04/30 01:08:27;;;;;;;11.68;7.13;;;9.60;99.90;;;;;;5074178;28;20200;-43
2022/04/30 01:10:54;;;;;;;12.77;6.18;;;9.60;99.90;;;;;;5074169;28;20198;-46
2022/04/30 01:13:20;;;;;;;10.15;6.75;;;9.50;99.90;;;;;;5073902;28;20170;-43
2022/04/30 01:15:46;;;;;;;13.98;6.28;;;9.50;99.90;;;;;;5074025;28;20257;-43
2022/04/30 01:18:12;;;;;;;10.75;6.10;;;9.50;99.90;;;;;;5073724;28;20217;-43
2022/04/30 01:20:42;;;;;;;8.38;6.25;;;9.50;99.90;;;;;;5074016;28;20174;-43
2022/04/30 01:23:09;;;;;;;10.15;6.80;;;9.50;99.90;;;;;;5073760;28;20184;-44
2022/04/30 01:25:38;;;;;;;9.20;6.65;;;9.50;99.90;;;;;;5073658;28;20166;-44
2022/04/30 01:28:04;;;;;;;9.45;6.38;;;9.50;99.90;;;;;;5073721;28;20170;-44
2022/04/30 01:30:30;;;;;;;8.55;6.60;;;9.50;99.90;;;;;;5073857;28;20730;-45
2022/04/30 01:38:24;;;;;;;10.05;7.15;;;9.50;99.90;;;;;;5073271;28;20224;-44
2022/04/30 01:40:49;;;;;;;12.70;6.22;;;9.40;99.90;;;;;;5072585;28;20687;-44
2022/04/30 01:43:16;;;;;;;11.18;6.47;;;9.30;99.90;;;;;;5073168;28;20251;-44
2022/04/30 01:45:44;;;;;;;8.88;6.70;;;9.30;99.90;;;;;;5073455;28;20568;-44
2022/04/30 01:48:13;;;;;;;13.57;7.07;;;9.30;99.90;;;;;;5073245;28;20534;-45
2022/04/30 01:50:43;;;;;;;7.22;6.47;;;9.20;99.90;;;;;;5073269;28;20206;-45
2022/04/30 01:53:09;;;;;;;8.68;6.32;;;9.20;99.90;;;;;;5071804;28;20170;-43
2022/04/30 01:55:36;;;;;;;10.40;6.28;;;9.10;99.90;;;;;;5073019;28;20173;-44
2022/04/30 01:58:02;;;;;;;9.65;5.65;;;9.10;99.90;;;;;;5073422;28;20209;-45
2022/04/30 02:00:27;;;;;;;12.30;6.68;;;9.10;99.90;;;;;;5073160;28;20218;-44
2022/04/30 02:02:54;;;;;;;11.55;6.40;;;9.10;99.90;;;;;;5072647;28;20213;-45
2022/04/30 02:05:22;;;;;;;8.00;5.80;;;9.10;99.90;;;;;;5073057;28;20170;-43
2022/04/30 02:07:58;;;;;;;9.48;5.88;;;9.00;99.90;;;;;;5073086;28;20268;-43
2022/04/30 02:10:24;;;;;;;13.68;6.15;;;9.00;99.90;;;;;;5072983;28;20172;-47
2022/04/30 02:12:51;;;;;;;8.60;6.40;;;9.00;99.90;;;;;;5072822;28;20166;-53
2022/04/30 02:15:18;;;;;;;7.25;5.60;;;8.90;99.90;;;;;;5072557;28;20173;-44
2022/04/30 02:17:46;;;;;;;11.27;6.10;;;8.80;99.90;;;;;;5072525;28;20252;-53
2022/04/30 02:20:24;;;;;;;10.43;6.22;;;8.80;99.90;;;;;;5072565;28;20169;-50
2022/04/30 02:22:58;;;;;;;11.55;5.53;;;8.70;99.90;;;;;;5072792;28;20204;-43
2022/04/30 02:25:25;;;;;;;8.13;5.30;;;8.70;99.90;;;;;;5072758;28;20173;-43
2022/04/30 02:27:58;;;;;;;9.02;6.07;;;8.60;99.90;;;;;;5072470;28;20627;-44
2022/04/30 02:30:26;;;;;;;10.02;5.43;;;8.60;99.90;;;;;;5071143;28;20554;-43
2022/04/30 02:32:55;;;;;;;7.90;5.47;;;8.60;99.90;;;;;;5072658;28;20227;-44
2022/04/30 02:35:28;;;;;;;11.45;6.10;;;8.60;99.90;;;;;;5072547;28;20201;-51
2022/04/30 02:37:56;;;;;;;8.23;5.20;;;8.60;99.90;;;;;;5071033;28;20565;-44
2022/04/30 02:40:24;;;;;;;8.85;5.68;;;8.50;99.90;;;;;;5072534;28;20592;-43
2022/04/30 02:42:53;;;;;;;10.20;5.82;;;8.50;99.90;;;;;;5072525;28;20565;-43
2022/04/30 02:45:20;;;;;;;9.43;5.13;;;8.50;99.90;;;;;;5072236;28;20529;-44
2022/04/30 02:47:53;;;;;;;7.82;5.72;;;8.40;99.90;;;;;;5072212;28;20161;-43
2022/04/30 02:50:19;;;;;;;9.57;5.05;;;8.40;99.90;;;;;;5072349;28;20174;-43
2022/04/30 02:52:45;;;;;;;10.10;6.50;;;8.30;99.90;;;;;;5072146;28;20630;-43
2022/04/30 02:55:12;;;;;;;8.18;5.78;;;8.30;99.90;;;;;;5072161;28;20184;-43
2022/04/30 03:00:40;;;;;;;11.52;5.90;;;8.30;99.90;;;;;;5072603;28;20204;-43
2022/04/30 03:03:07;;;;;;;8.43;5.93;;;8.20;99.90;;;;;;5071970;28;20653;-43
2022/04/30 03:05:34;;;;;;;8.48;5.85;;;8.20;99.90;;;;;;5072186;28;20590;-43
2022/04/30 03:08:04;;;;;;;13.75;6.28;;;8.20;99.90;;;;;;5072305;28;20178;-43
2022/04/30 03:10:30;;;;;;;8.07;5.68;;;8.20;99.90;;;;;;5072208;28;20678;-44
2022/04/30 03:12:55;;;;;;;11.93;5.55;;;8.10;99.90;;;;;;5071435;28;20205;-43
2022/04/30 03:15:22;;;;;;;7.97;6.03;;;8.10;99.90;;;;;;5071808;28;20232;-43
2022/04/30 03:23:17;;;;;;;11.48;6.20;;;8.10;99.90;;;;;;5071817;28;20207;-43
2022/04/30 03:25:44;;;;;;;10.65;6.43;;;8.10;99.90;;;;;;5071706;28;20177;-43
2022/04/30 03:28:10;;;;;;;12.30;6.00;;;8.10;99.90;;;;;;5071901;28;20219;-43
2022/04/30 03:30:36;;;;;;;11.95;6.30;;;8.00;99.90;;;;;;5071587;28;20256;-44
2022/04/30 03:33:01;;;;;;;12.15;5.97;;;8.10;99.90;;;;;;5072020;28;20181;-43
2022/04/30 03:35:27;;;;;;;9.63;5.70;;;8.00;99.90;;;;;;5071905;28;20158;-50
2022/04/30 03:37:52;;;;;;;10.00;5.57;;;8.00;99.90;;;;;;5071254;28;20197;-50
2022/04/30 03:40:18;;;;;;;9.57;5.72;;;8.00;99.90;;;;;;5071651;28;20178;-49
2022/04/30 03:42:44;;;;;;;8.95;6.28;;;7.90;99.90;;;;;;5071870;28;20178;-47
2022/04/30 03:45:10;;;;;;;9.27;6.38;;;8.00;99.90;;;;;;5071863;28;20267;-44
2022/04/30 03:47:37;;;;;;;8.55;6.03;;;7.90;99.90;;;;;;5071547;28;20165;-43
2022/04/30 03:50:04;;;;;;;7.80;6.03;;;7.90;99.90;;;;;;5071762;28;20177;-43
2022/04/30 03:52:30;;;;;;;9.02;6.50;;;7.80;99.90;;;;;;5071826;28;20170;-43
2022/04/30 03:54:56;;;;;;;9.38;6.25;;;7.70;99.90;;;;;;5071759;28;20170;-43
2022/04/30 03:57:21;;;;;;;10.63;6.35;;;7.70;99.90;;;;;;5071450;28;20212;-51
2022/04/30 03:59:47;;;;;;;7.18;5.43;;;7.70;99.90;;;;;;5071555;28;20317;-52
2022/04/30 04:02:13;;;;;;;11.05;6.20;;;7.70;99.90;;;;;;5071299;28;20766;-52
2022/04/30 04:04:39;;;;;;;9.07;5.75;;;7.70;99.90;;;;;;5070959;28;20177;-50
2022/04/30 04:07:04;;;;;;;7.22;5.50;;;7.70;99.90;;;;;;5071558;28;20170;-52
2022/04/30 04:09:30;;;;;;;11.70;6.32;;;7.70;99.90;;;;;;5071694;28;20578;-43
2022/04/30 04:11:55;;;;;;;8.45;5.63;;;7.60;99.90;;;;;;5071272;28;20171;-43
2022/04/30 04:19:49;;;;;;;8.57;5.32;;;7.50;99.90;;;;;;5071172;28;20235;-43
2022/04/30 04:22:14;;;;;;;9.68;6.07;;;7.50;99.90;;;;;;5071215;28;20163;-43
2022/04/30 04:27:23;;;;;;;12.55;6.15;;;7.50;99.90;;;;;;5074974;28;20707;-43
2022/04/30 04:29:50;;;;;;;11.30;6.15;;;7.50;99.90;;;;;;5074652;28;20260;-43
2022/04/30 04:32:15;;;;;;;12.90;5.53;;;7.60;99.90;;;;;;5074919;28;20209;-43
2022/04/30 04:34:41;;;;;;;10.18;5.40;;;7.60;99.90;;;;;;5074896;28;20198;-44
2022/04/30 04:37:07;;;;;;;7.65;5.32;;;7.50;99.90;;;;;;5074577;28;20172;-43
2022/04/30 04:39:33;;;;;;;11.02;5.82;;;7.50;99.90;;;;;;5074483;28;20209;-44
2022/04/30 04:41:58;;;;;;;8.30;5.78;;;7.60;99.90;;;;;;5074807;28;20524;-44
2022/04/30 04:44:24;;;;;;;15.02;7.32;;;7.60;99.90;;;;;;5074641;28;20166;-43
2022/04/30 04:46:50;;;;;;;11.30;6.10;;;7.70;99.90;;;;;;5073344;28;20583;-43
2022/04/30 04:49:15;;;;;;;9.10;6.68;;;7.70;99.90;;;;;;5074668;28;20572;-43
2022/04/30 04:51:41;;;;;;;12.07;5.75;;;7.60;99.90;;;;;;5074289;28;20173;-44
2022/04/30 04:54:07;;;;;;;9.27;5.10;;;7.70;99.90;;;;;;5074390;28;20253;-43
2022/04/30 04:56:32;;;;;;;9.10;5.38;;;7.70;99.90;;;;;;5074246;28;20173;-43
2022/04/30 04:58:58;;;;;;;9.68;6.28;;;7.60;99.90;;;;;;5074294;28;20201;-43
2022/04/30 05:01:24;;;;;;;10.23;5.38;;;7.70;99.90;;;;;;5074138;28;20615;-43
2022/04/30 05:03:50;;;;;;;11.23;5.80;;;7.70;99.90;;;;;;5073907;28;20218;-45
2022/04/30 05:06:15;;;;;;;8.68;6.15;;;8.50;99.90;;;;;;5074031;28;20166;-47
2022/04/30 05:08:41;;;;;;;9.82;6.28;;;7.80;99.90;;;;;;5074057;28;20227;-49
2022/04/30 05:11:07;;;;;;;11.35;6.35;;;7.90;99.90;;;;;;5074204;28;20196;-43
2022/04/30 05:13:32;;;;;;;10.98;6.60;;;8.00;99.90;;;;;;5073965;28;20237;-43
2022/04/30 05:15:58;;;;;;;8.77;5.40;;;8.00;99.90;;;;;;5073762;28;20194;-47
2022/04/30 05:18:23;;;;;;;9.23;6.20;;;8.10;99.90;;;;;;5073741;28;20194;-49
2022/04/30 05:20:49;;;;;;;11.05;5.88;;;8.00;99.90;;;;;;5073821;28;20635;-44
2022/04/30 05:23:15;;;;;;;10.65;6.05;;;8.00;99.90;;;;;;5073901;28;20615;-46
2022/04/30 05:25:40;;;;;;;13.55;6.50;;;8.10;99.90;;;;;;5073684;28;20248;-47
2022/04/30 05:28:10;;;;;;;7.53;5.93;;;8.20;99.90;;;;;;5073872;28;20173;-50
2022/04/30 05:30:36;;;;;;;7.70;5.47;;;8.20;99.90;;;;;;5073505;28;20170;-50
2022/04/30 05:33:01;;;;;;;8.70;5.97;;;8.10;99.90;;;;;;5074010;28;20174;-50
2022/04/30 05:35:28;;;;;;;9.82;6.15;;;8.20;99.90;;;;;;5073468;28;20649;-47
2022/04/30 05:37:53;;;;;;;8.52;5.95;;;8.40;99.90;;;;;;5073317;28;20619;-48
2022/04/30 05:40:19;;;;;;;11.15;6.28;;;8.50;99.90;;;;;;5073302;28;20176;-47
2022/04/30 05:42:45;;;;;;;9.98;6.28;;;8.50;99.90;;;;;;5073543;28;20166;-45
2022/04/30 05:45:10;;;;;;;11.23;6.05;;;8.50;99.90;;;;;;5073002;28;20167;-50
2022/04/30 05:47:37;;;;;;;10.77;6.03;;;8.50;99.90;;;;;;5072933;28;20192;-52
2022/04/30 05:50:06;;;;;;;11.43;6.43;;;8.60;99.90;;;;;;5073083;28;20635;-49
2022/04/30 05:52:34;;;;;;;7.78;5.88;;;8.60;99.90;;;;;;5073285;28;20185;-47
2022/04/30 05:55:01;;;;;;;9.57;6.32;;;8.60;99.90;;;;;;5073322;28;20177;-51
2022/04/30 05:57:28;;;;;;;8.52;5.65;;;8.80;99.90;;;;;;5073551;28;20273;-48
2022/04/30 05:59:53;;;;;;;8.40;5.68;;;8.80;99.90;;;;;;5073141;28;20214;-46
2022/04/30 06:02:19;;;;;;;11.75;6.28;;;8.80;99.90;;;;;;5072697;28;20210;-52
2022/04/30 06:04:46;;;;;;;10.82;6.43;;;8.80;99.90;;;;;;5072703;28;20538;-47
2022/04/30 06:07:12;;;;;;;15.13;6.45;;;9.00;99.90;;;;;;5072996;28;20532;-47
2022/04/30 06:09:37;;;;;;;12.50;6.18;;;9.00;99.90;;;;;;5072855;28;20181;-49
2022/04/30 06:12:03;;;;;;;8.65;5.53;;;9.00;99.90;;;;;;5072524;28;20166;-44
2022/04/30 06:14:29;;;;;;;7.50;5.55;;;9.10;99.90;;;;;;5072773;28;20178;-51
2022/04/30 06:16:55;;;;;;;11.88;6.55;;;9.20;99.90;;;;;;5072762;28;20166;-50
2022/04/30 06:19:22;;;;;;;8.32;6.55;;;9.30;99.90;;;;;;5072454;28;20201;-43
2022/04/30 06:21:48;;;;;;;9.07;5.93;;;9.30;99.90;;;;;;5072771;28;20170;-50
2022/04/30 06:24:14;;;;;;;9.25;6.80;;;9.40;99.90;;;;;;5072620;28;20188;-52
2022/04/30 06:26:40;;;;;;;8.63;5.43;;;9.60;99.90;;;;;;5072505;28;20714;-47
2022/04/30 06:29:06;;;;;;;8.85;5.38;;;9.70;99.90;;;;;;5072501;28;20174;-50
2022/04/30 06:31:31;;;;;;;8.48;4.90;;;9.90;99.90;;;;;;5072533;28;20198;-45
2022/04/30 06:33:57;;;;;;;8.18;6.32;;;10.00;99.90;;;;;;5072612;28;20187;-44
2022/04/30 06:36:22;;;;;;;6.93;4.93;;;10.10;99.90;;;;;;5072286;28;20174;-47
2022/04/30 06:38:49;;;;;;;9.65;6.45;;;10.00;99.90;;;;;;5072480;28;20205;-43
2022/04/30 06:41:14;;;;;;;10.60;6.43;;;9.70;99.90;;;;;;5072274;28;20634;-44
2022/04/30 06:43:41;;;;;;;11.27;5.70;;;9.40;99.90;;;;;;5072477;28;20181;-49
2022/04/30 06:46:07;;;;;;;9.63;5.65;;;9.40;99.90;;;;;;5072031;28;20174;-44
2022/04/30 06:48:33;;;;;;;10.43;7.13;;;9.30;99.90;;;;;;5071880;28;20534;-46
2022/04/30 06:50:59;;;;;;;11.18;6.22;;;9.30;99.90;;;;;;5072647;28;20249;-49
2022/04/30 06:58:55;;;;;;;10.00;6.20;;;9.60;99.90;;;;;;5072106;28;20597;-50
2022/04/30 07:03:49;;;;;;;12.23;5.35;;;9.90;99.90;;;;;;5071805;28;20217;-47
2022/04/30 07:06:16;;;;;;;10.05;6.30;;;10.00;99.90;;;;;;5071998;28;20170;-43
2022/04/30 07:08:41;;;;;;;10.77;6.47;;;9.90;99.90;;;;;;5072261;28;20178;-44
2022/04/30 07:11:07;;;;;;;10.07;5.30;;;10.00;99.90;;;;;;5071921;28;20158;-48
2022/04/30 07:13:33;;;;;;;13.13;6.25;;;10.00;99.90;;;;;;5071864;28;20599;-48
2022/04/30 07:15:58;;;;;;;10.00;5.47;;;9.90;99.90;;;;;;5072108;28;20174;-44
2022/04/30 07:18:24;;;;;;;9.35;5.38;;;10.10;99.90;;;;;;5070450;28;20213;-48
2022/04/30 07:20:52;;;;;;;8.38;5.68;;;10.10;99.90;;;;;;5071835;28;20166;-53
2022/04/30 07:23:18;;;;;;;12.30;5.82;;;10.30;99.90;;;;;;5071720;28;20174;-52
2022/04/30 07:25:43;;;;;;;10.40;5.78;;;10.30;99.90;;;;;;5071730;28;20181;-46
2022/04/30 07:28:09;;;;;;;12.63;6.75;;;10.20;99.90;;;;;;5071804;28;20166;-47
2022/04/30 07:30:34;;;;;;;10.95;5.72;;;10.20;99.90;;;;;;5071735;28;20181;-52
2022/04/30 07:33:00;;;;;;;9.88;6.15;;;10.40;99.90;;;;;;5072084;28;20165;-45
2022/04/30 07:35:26;;;;;;;7.75;5.20;;;10.60;99.90;;;;;;5071675;28;20511;-45
2022/04/30 07:37:51;;;;;;;9.02;5.32;;;10.70;99.90;;;;;;5071565;28;20511;-47
2022/04/30 07:40:17;;;;;;;9.13;4.95;;;10.80;99.90;;;;;;5071617;28;20698;-44
2022/04/30 07:42:42;;;;;;;7.28;5.15;;;10.90;99.90;;;;;;5071847;28;20162;-43
2022/04/30 07:45:09;;;;;;;8.40;4.55;;;10.90;99.90;;;;;;5071656;28;20185;-49
2022/04/30 07:47:34;;;;;;;7.30;4.88;;;10.90;99.90;;;;;;5071793;28;20171;-47
2022/04/30 07:50:00;;;;;;;6.03;4.53;;;10.70;99.90;;;;;;5071829;28;20654;-46
2022/04/30 07:52:25;;;;;;;7.30;4.45;;;10.80;99.90;;;;;;5071516;28;20251;-48
2022/04/30 07:54:51;;;;;;;7.50;4.35;;;10.80;99.90;;;;;;5071223;28;20235;-44
2022/04/30 07:57:16;;;;;;;8.63;4.20;;;10.60;99.90;;;;;;5071487;28;20176;-50
2022/04/30 07:59:44;;;;;;;6.10;4.20;;;10.50;99.90;;;;;;5075346;28;20206;-45
2022/04/30 08:02:10;;;;;;;5.57;4.05;;;10.70;99.90;;;;;;5075252;28;20578;-43
2022/04/30 08:04:35;;;;;;;6.43;3.67;;;11.20;99.90;;;;;;5075239;28;20170;-44
2022/04/30 08:07:01;;;;;;;5.03;3.88;;;11.60;99.90;;;;;;5075697;28;20166;-45
2022/04/30 08:09:26;;;;;;;15.55;3.97;;;11.80;99.90;;;;;;5075321;28;20168;-44
2022/04/30 08:11:52;;;;;;;5.20;3.63;;;11.60;99.90;;;;;;5075329;28;20202;-49
2022/04/30 08:14:17;;;;;;;4.25;3.08;;;11.40;99.90;;;;;;5074870;28;20170;-43
2022/04/30 08:16:43;;;;;;;6.43;3.83;;;11.20;99.90;;;;;;5074912;28;20177;-45
2022/04/30 08:19:09;;;;;;;5.90;4.13;;;11.30;99.90;;;;;;5074774;28;20208;-45
2022/04/30 08:21:34;;;;;;;7.03;4.10;;;11.50;99.90;;;;;;5074966;28;20204;-44
2022/04/30 08:24:00;;;;;;;6.88;3.45;;;11.70;99.90;;;;;;5075142;28;20510;-49
2022/04/30 08:26:25;;;;;;;10.57;4.10;;;11.60;99.90;;;;;;5074683;28;20241;-50
2022/04/30 08:28:51;;;;;;;5.25;3.65;;;12.00;99.90;;;;;;5074621;28;20166;-44
2022/04/30 08:31:18;;;;;;;7.82;4.88;;;12.20;99.90;;;;;;5074798;28;20228;-45
2022/04/30 08:33:43;;;;;;;5.32;3.50;;;12.10;99.90;;;;;;5074614;28;20638;-45
2022/04/30 08:36:09;;;;;;;5.72;3.33;;;11.80;99.90;;;;;;5074650;28;20170;-49
2022/04/30 08:38:34;;;;;;;5.25;3.35;;;11.70;99.90;;;;;;5074707;28;20532;-45
2022/04/30 08:41:00;;;;;;;6.15;4.20;;;11.60;99.90;;;;;;5074876;28;20178;-49
2022/04/30 08:43:28;;;;;;;8.27;4.10;;;11.50;99.90;;;;;;5074373;28;20216;-46
2022/04/30 08:45:54;;;;;;;5.65;4.03;;;11.70;99.90;;;;;;5074570;28;20174;-49
2022/04/30 08:48:19;;;;;;;5.55;3.47;;;11.60;99.90;;;;;;5074360;28;20181;-46
2022/04/30 08:50:47;;;;;;;7.18;3.40;;;11.70;99.90;;;;;;5074325;28;20158;-44
2022/04/30 08:53:14;;;;;;;8.93;3.78;;;11.70;99.90;;;;;;5074312;28;20162;-44
2022/04/30 08:55:39;;;;;;;6.63;4.22;;;12.30;99.90;;;;;;5074480;28;20166;-49
2022/04/30 08:58:05;;;;;;;6.68;3.95;;;12.90;99.90;;;;;;5074141;28;20554;-47
2022/04/30 09:00:37;;;;;;;4.43;3.60;;;13.20;99.90;;;;;;5074519;28;20162;-48
2022/04/30 09:03:03;;;;;;;7.00;3.75;;;13.00;99.90;;;;;;5073951;28;20221;-48
2022/04/30 09:05:35;;;;;;;5.32;3.53;;;13.10;99.90;;;;;;5074343;28;20541;-47
2022/04/30 09:08:01;;;;;;;7.10;4.30;;;13.10;99.90;;;;;;5074487;28;20169;-45
2022/04/30 09:10:30;;;;;;;6.75;3.97;;;13.20;99.90;;;;;;5073780;28;20257;-46
2022/04/30 09:13:16;;;;;;;6.45;4.07;;;13.20;99.90;;;;;;5073878;28;20166;-46
2022/04/30 09:15:46;;;;;;;6.60;3.65;;;12.60;99.90;;;;;;5073852;28;20169;-46
2022/04/30 09:18:13;;;;;;;6.10;3.90;;;12.80;99.90;;;;;;5073750;28;20186;-44
2022/04/30 09:20:48;;;;;;;4.85;3.38;;;13.00;99.90;;;;;;5073750;28;20197;-46
2022/04/30 09:23:27;;;;;;;4.43;3.38;;;12.80;99.90;;;;;;5073978;28;20544;-47
2022/04/30 09:25:54;;;;;;;6.07;3.65;;;13.00;99.90;;;;;;5073645;28;20201;-45
2022/04/30 09:28:24;;;;;;;11.00;3.83;;;12.70;99.90;;;;;;5072327;28;20635;-45
2022/04/30 09:30:50;;;;;;;5.43;4.07;;;13.00;99.90;;;;;;5073506;28;20177;-46
2022/04/30 09:33:18;;;;;;;4.65;3.60;;;13.10;99.90;;;;;;5073773;28;20205;-47
2022/04/30 09:38:37;;;;;;;6.25;4.05;;;13.50;99.90;;;;;;5073571;28;20243;-46
2022/04/30 09:41:07;;;;;;;4.03;3.50;;;13.40;99.90;;;;;;5073620;28;20173;-45
2022/04/30 09:43:37;;;;;;;6.43;4.22;;;13.60;99.90;;;;;;5073407;28;20240;-51
2022/04/30 09:46:06;;;;;;;4.80;3.97;;;13.80;99.90;;;;;;5072178;28;20183;-51
2022/04/30 09:54:01;;;;;;;11.65;4.47;;;14.20;99.90;;;;;;5073616;28;20648;-45
2022/04/30 09:56:36;;;;;;;5.13;3.88;;;14.10;99.90;;;;;;5073330;28;20162;-46
2022/04/30 09:59:22;;;;;;;7.05;3.78;;;14.20;99.90;;;;;;5071541;28;20231;-46
2022/04/30 10:01:48;;;;;;;6.18;4.28;;;14.40;99.90;;;;;;5072653;28;20185;-46
2022/04/30 10:04:17;;;;;;;5.35;4.03;;;14.30;99.90;;;;;;5072917;28;20174;-46
2022/04/30 10:06:48;;;;;;;5.43;4.38;;;14.50;99.90;;;;;;5072821;28;20650;-50
2022/04/30 10:09:22;;;;;;;7.47;3.92;;;14.30;99.90;;;;;;5073085;28;20182;-51
2022/04/30 10:11:56;;;;;;;4.82;3.97;;;14.30;99.90;;;;;;5072793;28;20623;-46
2022/04/30 10:14:34;;;;;;;5.35;3.97;;;14.60;99.90;;;;;;5072696;28;20170;-46
2022/04/30 10:17:13;;;;;;;8.38;4.45;;;14.30;99.90;;;;;;5073027;28;20185;-44
2022/04/30 10:20:07;;;;;;;5.28;4.30;;;14.30;99.90;;;;;;5072573;28;20205;-45
2022/04/30 10:22:35;;;;;;;5.50;3.47;;;14.50;99.90;;;;;;5071513;28;20245;-47
2022/04/30 10:25:01;;;;;;;5.30;3.25;;;14.30;99.90;;;;;;5072748;28;20181;-44
2022/04/30 10:27:41;;;;;;;6.13;4.00;;;14.30;99.90;;;;;;5071893;28;20414;-45
2022/04/30 10:30:18;;;;;;;7.40;4.15;;;14.70;99.90;;;;;;5072556;28;20506;-46
2022/04/30 10:32:53;;;;;;;5.45;3.70;;;14.80;99.90;;;;;;5072408;28;20165;-45
2022/04/30 10:35:31;;;;;;;4.32;3.92;;;14.80;99.90;;;;;;5069616;28;20177;-45
2022/04/30 10:38:18;;;;;;;6.07;3.35;;;14.80;99.90;;;;;;5070716;28;20170;-44
2022/04/30 10:40:52;;;;;;;6.55;3.65;;;14.70;99.90;;;;;;5070732;28;20643;-47
2022/04/30 10:43:19;;;;;;;7.93;3.90;;;14.70;99.90;;;;;;5070561;28;20166;-49
2022/04/30 10:45:45;;;;;;;5.13;3.80;;;14.80;99.90;;;;;;5070408;28;20174;-44
2022/04/30 10:48:11;;;;;;;8.02;3.47;;;15.10;99.90;;;;;;5070470;28;20173;-44
2022/04/30 10:50:37;;;;;;;4.90;3.85;;;15.30;99.90;;;;;;5070576;28;20173;-46
2022/04/30 10:53:06;;;;;;;4.57;3.28;;;15.00;99.90;;;;;;5071052;28;20162;-43
2022/04/30 10:55:32;;;;;;;5.75;3.55;;;14.80;99.90;;;;;;5072372;28;20174;-43
2022/04/30 10:57:58;;;;;;;5.35;3.28;;;14.90;99.90;;;;;;5072091;28;20177;-43
2022/04/30 11:00:25;;;;;;;4.82;3.55;;;15.20;99.90;;;;;;5072005;28;20166;-44
2022/04/30 11:02:50;;;;;;;6.05;4.03;;;15.50;99.90;;;;;;5071364;28;20209;-44
2022/04/30 11:05:22;;;;;;;5.65;3.45;;;15.40;98.50;;;;;;5071475;28;20249;-47
2022/04/30 11:07:48;;;;;;;5.57;3.40;;;15.70;99.60;;;;;;5069022;28;20166;-45
2022/04/30 11:10:14;;;;;;;6.80;4.43;;;15.70;98.80;;;;;;5068784;28;20306;-46
2022/04/30 11:12:39;;;;;;;5.78;4.45;;;15.70;99.90;;;;;;5070314;28;20197;-46
2022/04/30 11:15:05;;;;;;;9.30;4.53;;;16.10;99.90;;;;;;5070224;28;20177;-47
2022/04/30 11:17:42;;;;;;;7.65;4.53;;;15.50;99.90;;;;;;5071388;28;20173;-45
2022/04/30 11:20:08;;;;;;;9.18;4.68;;;15.20;99.90;;;;;;5072007;28;20201;-49
2022/04/30 11:22:34;;;;;;;7.68;4.68;;;15.50;99.90;;;;;;5071850;28;20181;-51
2022/04/30 11:25:00;;;;;;;7.25;4.45;;;15.80;99.90;;;;;;5072022;28;20174;-52
2022/04/30 11:27:31;;;;;;;8.13;4.70;;;16.00;99.90;;;;;;5071788;28;20178;-52
2022/04/30 11:29:56;;;;;;;9.75;4.40;;;15.70;99.90;;;;;;5072288;28;20173;-50
2022/04/30 11:32:23;;;;;;;5.07;4.22;;;16.00;98.70;;;;;;5072025;28;20173;-52
2022/04/30 11:34:52;;;;;;;8.15;4.68;;;16.30;99.40;;;;;;5075878;28;20252;-53
2022/04/30 11:37:18;;;;;;;7.25;5.00;;;16.50;99.90;;;;;;5075694;28;20201;-52
2022/04/30 11:39:43;;;;;;;8.30;5.07;;;16.30;99.90;;;;;;5075692;28;20237;-52
2022/04/30 11:42:09;;;;;;;7.63;4.07;;;15.90;99.90;;;;;;5075644;28;20162;-52
2022/04/30 11:44:35;;;;;;;4.75;3.72;;;15.90;99.50;;;;;;5075528;28;20534;-53
2022/04/30 11:47:00;;;;;;;9.90;5.18;;;16.30;97.70;;;;;;5075925;28;20178;-55
2022/04/30 11:49:27;;;;;;;6.43;5.00;;;16.50;98.60;;;;;;5075480;28;20174;-50
2022/04/30 11:51:55;;;;;;;9.35;4.90;;;16.60;99.90;;;;;;5075479;28;20628;-52
2022/04/30 11:54:22;;;;;;;7.05;4.28;;;16.20;99.90;;;;;;5075673;28;20174;-52
2022/04/30 11:56:49;;;;;;;8.05;5.15;;;15.80;99.90;;;;;;5075261;28;20174;-52
2022/04/30 11:59:15;;;;;;;8.82;4.85;;;15.50;99.90;;;;;;5075077;28;20267;-50
2022/04/30 12:01:44;;;;;;;9.15;4.97;;;15.90;99.90;;;;;;5074977;28;20185;-51
2022/04/30 12:04:14;;;;;;;10.48;5.00;;;16.30;99.90;;;;;;5075280;28;20254;-52
2022/04/30 12:06:43;;;;;;;7.82;5.25;;;16.60;99.90;;;;;;5075465;28;20198;-46
2022/04/30 12:09:20;;;;;;;7.25;4.95;;;16.60;99.50;;;;;;5075339;28;20170;-50
2022/04/30 12:11:50;;;;;;;8.15;5.13;;;17.00;98.00;;;;;;5075196;28;20610;-52
2022/04/30 12:14:16;;;;;;;6.55;5.40;;;16.40;98.20;;;;;;5074810;28;20176;-50
2022/04/30 12:16:43;;;;;;;6.53;4.50;;;16.30;98.30;;;;;;5074779;28;20189;-51
2022/04/30 12:25:10;;;;;;;6.05;4.32;;;16.20;99.00;;;;;;5073925;28;20213;-52
2022/04/30 12:27:37;;;;;;;7.80;4.43;;;16.30;97.90;;;;;;5074761;28;20162;-52
2022/04/30 12:30:14;;;;;;;7.53;4.78;;;16.20;98.30;;;;;;5074975;28;20166;-51
2022/04/30 12:32:54;;;;;;;7.32;5.50;;;16.70;97.50;;;;;;5074902;28;20215;-52
2022/04/30 12:35:28;;;;;;;12.05;8.73;;;16.70;96.70;;;;;;5074692;28;20157;-49
2022/04/30 12:38:13;;;;;;;7.15;5.18;;;16.80;96.10;;;;;;5074786;28;20173;-53
2022/04/30 12:40:42;;;;;;;7.97;5.97;;;17.10;94.60;;;;;;5074607;28;20173;-53
2022/04/30 12:43:08;;;;;;;5.32;4.32;;;17.10;96.00;;;;;;5074722;28;20166;-50
2022/04/30 12:45:34;;;;;;;6.47;4.25;;;17.20;95.70;;;;;;5073366;28;20177;-53
2022/04/30 12:48:01;;;;;;;4.63;3.80;;;17.20;95.60;;;;;;5074761;28;20169;-46
2022/04/30 12:50:28;;;;;;;6.10;3.65;;;17.10;94.90;;;;;;5074731;28;20170;-46
2022/04/30 12:52:54;;;;;;;6.15;4.22;;;16.80;94.80;;;;;;5074551;28;20170;-52
2022/04/30 12:55:20;;;;;;;9.80;4.38;;;17.20;95.60;;;;;;5074474;28;20173;-49
2022/04/30 12:57:47;;;;;;;4.78;3.53;;;16.80;93.80;;;;;;5074618;28;20300;-51
2022/04/30 13:00:15;;;;;;;4.20;3.38;;;17.00;93.30;;;;;;5073774;28;20210;-49
2022/04/30 13:02:41;;;;;;;7.47;5.13;;;17.20;93.30;;;;;;5073930;28;20721;-52
2022/04/30 13:05:08;;;;;;;4.50;3.65;;;17.60;93.50;;;;;;5074055;28;20653;-52
2022/04/30 13:07:34;;;;;;;4.90;3.55;;;17.00;92.20;;;;;;5074383;28;20253;-52
2022/04/30 13:15:28;;;;;;;4.38;3.22;;;16.90;92.60;;;;;;5073980;28;20568;-51
2022/04/30 13:17:58;;;;;;;4.65;3.08;;;16.90;90.20;;;;;;5073761;28;20174;-50
2022/04/30 13:20:27;;;;;;;5.85;3.08;;;17.30;91.60;;;;;;5073984;28;20227;-52
2022/04/30 13:22:56;;;;;;;6.57;4.10;;;17.60;92.30;;;;;;5072945;28;20244;-52
2022/04/30 13:25:22;;;;;;;3.45;2.97;;;17.70;91.30;;;;;;5073528;28;20186;-52
2022/04/30 13:27:49;;;;;;;4.45;3.35;;;17.30;90.10;;;;;;5073227;28;20243;-43
2022/04/30 13:30:15;;;;;;;7.03;3.53;;;17.00;90.20;;;;;;5073423;28;20166;-46
2022/04/30 13:32:41;;;;;;;4.45;3.08;;;17.40;90.70;;;;;;5073558;28;20255;-44
2022/04/30 13:35:08;;;;;;;4.22;3.25;;;17.60;90.40;;;;;;5073774;28;20181;-46
2022/04/30 13:37:40;;;;;;;7.35;3.03;;;17.70;90.00;;;;;;5073102;28;20188;-48
2022/04/30 13:40:09;;;;;;;6.03;3.13;;;17.90;88.50;;;;;;5071922;28;20201;-45